Time;durP1;ratioP1;P1;durP2;ratioP2;P2;SDS_P1;SDS_P2;PMS_P1;PMS_P2;Temp;Humidity;BMP_temperature;BMP_pressure;BME280_temperature;BME280_humidity;BME280_pressure;Samples;Min_cycle;Max_cycle;Signal;HPM_P1;HPM_P2
2021/01/30 00:02:02;;;;;;;21.17;14.87;;;0.40;99.90;;;-2.22;100.00;98272.91;4985130;28;100711;-68
2021/01/30 00:04:29;;;;;;;21.53;16.43;;;0.80;99.90;;;-2.26;100.00;98261.88;4985375;28;100095;-65
2021/01/30 00:06:56;;;;;;;20.47;14.13;;;0.30;99.90;;;-2.09;100.00;98265.69;4984567;28;99948;-66
2021/01/30 00:09:25;;;;;;;20.93;14.80;;;0.40;99.90;;;-2.22;100.00;98255.41;4985437;28;101379;-65
2021/01/30 00:11:55;;;;;;;17.40;13.43;;;0.20;99.90;;;-2.25;100.00;98239.13;4984070;28;100460;-65
2021/01/30 00:14:23;;;;;;;25.93;16.40;;;0.40;99.90;;;-2.22;100.00;98242.28;4985405;28;100282;-65
2021/01/30 00:16:51;;;;;;;21.63;15.73;;;0.30;99.90;;;-2.27;100.00;98238.41;4984742;28;100284;-66
2021/01/30 00:19:18;;;;;;;24.93;16.27;;;0.30;99.90;;;-2.29;100.00;98232.47;4984928;28;101550;-68
2021/01/30 00:21:50;;;;;;;24.53;16.23;;;0.50;99.90;;;-2.17;100.00;98232.28;4984822;28;100670;-65
2021/01/30 00:24:19;;;;;;;24.40;15.53;;;0.20;99.90;;;-2.24;100.00;98225.06;4982190;28;100031;-67
2021/01/30 00:26:50;;;;;;;22.20;15.43;;;0.30;99.90;;;-2.26;100.00;98227.81;4984574;28;100289;-67
2021/01/30 00:29:17;;;;;;;24.23;15.87;;;0.20;99.90;;;-2.27;100.00;98217.47;4984897;28;100418;-66
2021/01/30 00:31:43;;;;;;;23.27;16.53;;;0.30;99.90;;;-2.27;100.00;98217.47;4984945;28;100837;-66
2021/01/30 00:34:10;;;;;;;21.60;14.90;;;0.40;99.90;;;-2.28;100.00;98227.09;4985187;28;100070;-68
2021/01/30 00:36:37;;;;;;;21.57;16.33;;;0.30;99.90;;;-2.29;100.00;98220.19;4983287;28;100417;-67
2021/01/30 00:39:04;;;;;;;22.13;14.73;;;0.40;99.90;;;-2.20;100.00;98235.13;4983954;28;100853;-66
2021/01/30 00:41:30;;;;;;;24.17;15.67;;;0.30;99.90;;;-2.09;100.00;98238.66;4983196;28;101052;-66
2021/01/30 00:44:00;;;;;;;24.30;16.53;;;0.20;99.90;;;-2.21;100.00;98227.41;4983892;28;100037;-66
2021/01/30 00:46:26;;;;;;;25.33;16.00;;;0.40;99.90;;;-2.26;100.00;98211.25;4984206;28;100332;-66
2021/01/30 00:48:53;;;;;;;22.27;15.50;;;0.30;99.90;;;-2.18;100.00;98214.88;4983714;28;101710;-66
2021/01/30 00:51:21;;;;;;;23.33;16.03;;;0.40;99.90;;;-2.17;100.00;98207.84;4984756;28;101238;-66
2021/01/30 00:53:50;;;;;;;22.87;15.63;;;0.40;99.90;;;-2.18;100.00;98193.94;4982067;28;100082;-65
2021/01/30 00:56:17;;;;;;;24.40;16.60;;;0.40;99.90;;;-2.19;100.00;98194.06;4984685;28;100162;-66
2021/01/30 00:58:44;;;;;;;24.23;16.47;;;0.30;99.90;;;-2.23;100.00;98190.06;4982121;28;102501;-68
2021/01/30 01:01:20;;;;;;;25.60;17.13;;;0.40;99.90;;;-2.18;100.00;98191.31;4982301;28;101995;-66
2021/01/30 01:03:47;;;;;;;24.00;16.90;;;0.50;99.90;;;-2.24;100.00;98193.63;4981850;28;100034;-66
2021/01/30 01:06:13;;;;;;;26.60;16.87;;;0.30;99.90;;;-2.21;100.00;98186.31;4984280;28;99930;-66
2021/01/30 01:08:40;;;;;;;23.90;17.33;;;0.30;99.90;;;-2.22;100.00;98176.78;4984533;28;100918;-67
2021/01/30 01:11:07;;;;;;;27.33;18.10;;;0.30;99.90;;;-2.24;100.00;98167.44;4983565;28;100671;-66
2021/01/30 01:13:33;;;;;;;25.43;16.53;;;0.30;99.90;;;-2.18;100.00;98175.59;4983848;28;100162;-67
2021/01/30 01:16:00;;;;;;;25.60;17.20;;;0.30;99.90;;;-2.19;100.00;98168.69;4981847;28;100170;-70
2021/01/30 01:18:26;;;;;;;29.93;18.83;;;0.40;99.90;;;-2.24;100.00;98181.38;4983621;28;100645;-67
2021/01/30 01:20:52;;;;;;;32.23;19.20;;;0.30;99.90;;;-2.21;100.00;98177.63;4984168;28;100314;-68
2021/01/30 01:23:19;;;;;;;29.37;18.00;;;0.30;99.90;;;-2.24;100.00;98191.84;4983571;28;100144;-67
2021/01/30 01:25:46;;;;;;;24.63;16.50;;;0.20;99.90;;;-2.22;100.00;98176.78;4983552;28;99962;-67
2021/01/30 01:28:13;;;;;;;26.50;16.70;;;0.30;99.90;;;-2.23;100.00;98177.78;4982672;28;101359;-67
2021/01/30 01:30:39;;;;;;;28.40;16.13;;;0.20;99.90;;;-2.20;100.00;98169.66;4983038;28;100668;-68
2021/01/30 01:33:06;;;;;;;28.23;15.43;;;0.20;99.90;;;-2.24;100.00;98170.06;4983910;28;100337;-66
2021/01/30 01:35:33;;;;;;;26.27;14.77;;;0.20;99.90;;;-2.19;100.00;98163.44;4982673;28;100526;-66
2021/01/30 01:38:01;;;;;;;23.57;14.80;;;0.30;99.90;;;-2.13;100.00;98164.72;4981502;28;100709;-67
2021/01/30 01:40:31;;;;;;;23.93;15.33;;;0.20;99.90;;;-2.13;100.00;98171.75;4982769;28;100425;-68
2021/01/30 01:43:01;;;;;;;25.53;14.80;;;0.30;99.90;;;-2.07;100.00;98173.84;4963915;28;100112;-67
2021/01/30 01:45:28;;;;;;;21.83;14.03;;;0.40;99.90;;;-2.08;100.00;98166.94;4963612;28;100126;-65
2021/01/30 01:47:55;;;;;;;20.83;14.47;;;0.30;99.90;;;-2.12;100.00;98174.25;4962752;28;101938;-66
2021/01/30 01:50:38;;;;;;;21.23;13.63;;;0.40;99.90;;;-2.09;100.00;98170.53;4963316;28;100642;-66
2021/01/30 01:53:13;;;;;;;18.17;12.70;;;0.40;99.90;;;-2.11;100.00;98165.44;4962335;28;100026;-65
2021/01/30 01:55:45;;;;;;;18.77;12.57;;;0.30;99.90;;;-2.10;100.00;98163.66;4963066;28;100067;-65
2021/01/30 01:58:14;;;;;;;19.10;12.47;;;0.50;99.90;;;-2.12;100.00;98158.53;4963121;28;101349;-65
2021/01/30 02:00:44;;;;;;;19.97;13.20;;;0.50;99.90;;;-2.11;100.00;98154.97;4962146;28;100464;-65
2021/01/30 02:03:11;;;;;;;19.70;13.87;;;0.40;99.90;;;-2.11;100.00;98164.59;4963168;28;100215;-64
2021/01/30 02:05:40;;;;;;;24.37;14.70;;;0.20;99.90;;;-2.08;100.00;98175.63;4969240;28;100160;-64
2021/01/30 02:08:12;;;;;;;19.30;14.37;;;0.40;99.90;;;-2.07;100.00;98179.09;4983871;28;101016;-64
2021/01/30 02:10:42;;;;;;;24.27;15.33;;;0.30;99.90;;;-2.12;100.00;98179.50;4982802;27;101373;-64
2021/01/30 02:13:15;;;;;;;20.30;13.63;;;0.30;99.90;;;-2.11;100.00;98175.09;4984714;28;100268;-64
2021/01/30 02:15:44;;;;;;;24.67;16.23;;;0.30;99.90;;;-2.04;100.00;98176.22;4989801;28;100336;-64
2021/01/30 02:18:26;;;;;;;22.07;16.83;;;0.40;99.90;;;-2.16;100.00;98188.56;4982834;28;101719;-64
2021/01/30 02:21:21;;;;;;;23.63;16.17;;;1.10;99.90;;;-2.20;100.00;98177.50;4982614;28;100494;-64
2021/01/30 02:24:36;;;;;;;26.10;18.53;;;0.30;99.90;;;-2.27;100.00;98184.22;4982337;28;100166;-65
2021/01/30 02:27:35;;;;;;;24.77;18.43;;;0.50;99.90;;;-2.33;100.00;98187.34;4982219;28;100238;-66
2021/01/30 02:30:35;;;;;;;26.17;18.87;;;0.30;99.90;;;-2.39;100.00;98180.03;4982136;28;101249;-65
2021/01/30 02:33:29;;;;;;;25.97;18.83;;;0.30;99.90;;;-2.47;100.00;98187.66;4982563;28;100740;-65
2021/01/30 02:36:20;;;;;;;25.13;17.70;;;0.30;99.90;;;-2.53;100.00;98186.41;4982509;27;100434;-65
2021/01/30 02:38:56;;;;;;;26.10;19.03;;;0.00;99.90;;;-2.53;100.00;98196.06;4983011;28;100122;-64
2021/01/30 02:41:28;;;;;;;27.87;18.23;;;0.10;99.90;;;-2.52;100.00;98208.19;4982690;28;101061;-65
2021/01/30 02:43:59;;;;;;;27.10;18.47;;;-0.10;99.90;;;-2.60;100.00;98203.59;4982886;28;101318;-65
2021/01/30 02:46:29;;;;;;;33.13;21.50;;;0.00;99.90;;;-2.60;100.00;98198.34;4982018;28;101220;-67
2021/01/30 02:49:02;;;;;;;27.23;20.60;;;-0.10;99.90;;;-2.63;100.00;98189.91;4983626;28;99966;-65
2021/01/30 02:51:36;;;;;;;30.57;20.60;;;-0.10;99.90;;;-2.62;100.00;98209.91;4982611;28;99896;-65
2021/01/30 02:54:08;;;;;;;31.43;20.60;;;-0.10;99.90;;;-2.66;100.00;98204.09;4982450;28;100583;-66
2021/01/30 02:56:35;;;;;;;33.03;22.40;;;-0.10;99.90;;;-2.66;100.00;98209.31;4981896;28;100195;-65
2021/01/30 02:59:06;;;;;;;34.20;23.00;;;-0.20;99.90;;;-2.72;100.00;98215.03;4982183;28;100102;-66
2021/01/30 03:01:35;;;;;;;35.97;22.57;;;-0.10;99.90;;;-2.77;100.00;98212.00;4981720;28;100949;-65
2021/01/30 03:04:07;;;;;;;31.70;22.20;;;-0.10;99.90;;;-2.77;100.00;98212.00;4982664;28;100427;-66
2021/01/30 03:06:50;;;;;;;38.37;24.10;;;-0.20;99.90;;;-2.73;100.00;98225.66;4981909;28;100617;-65
2021/01/30 03:09:28;;;;;;;35.80;24.10;;;-0.20;99.90;;;-2.69;100.00;98237.53;4982442;28;100405;-65
2021/01/30 03:12:02;;;;;;;37.33;24.97;;;-0.20;99.90;;;-2.74;100.00;98240.53;4980018;28;101193;-66
2021/01/30 03:14:30;;;;;;;38.40;24.57;;;-0.30;99.90;;;-2.75;100.00;98254.59;4982576;28;100744;-65
2021/01/30 03:17:00;;;;;;;38.63;25.70;;;-0.20;99.90;;;-2.71;100.00;98276.09;4982470;28;100478;-65
2021/01/30 03:19:30;;;;;;;41.57;26.43;;;-0.20;99.90;;;-2.72;100.00;98282.31;4982943;28;100006;-66
2021/01/30 03:22:02;;;;;;;40.43;27.17;;;-0.10;99.90;;;-2.70;100.00;98280.38;4984049;28;100738;-66
2021/01/30 03:24:29;;;;;;;39.10;26.80;;;-0.10;99.90;;;-2.74;100.00;98284.22;4982393;28;100509;-65
2021/01/30 03:26:56;;;;;;;40.80;25.43;;;-0.20;99.90;;;-2.72;100.00;98284.91;4981387;28;99963;-65
2021/01/30 03:29:23;;;;;;;42.77;27.50;;;0.80;99.90;;;-2.71;100.00;98283.94;4982331;28;100031;-65
2021/01/30 03:31:49;;;;;;;35.97;24.47;;;-0.20;99.90;;;-2.82;100.00;98279.56;4981075;28;101750;-66
2021/01/30 03:34:17;;;;;;;39.70;26.43;;;-0.20;99.90;;;-2.83;100.00;98290.16;4981863;28;100327;-64
2021/01/30 03:36:44;;;;;;;36.00;25.33;;;-0.20;99.90;;;-2.84;100.00;98296.38;4980102;28;101473;-66
2021/01/30 03:39:16;;;;;;;38.13;25.80;;;-0.20;99.90;;;-2.82;100.00;98310.16;4981419;28;100237;-67
2021/01/30 03:41:44;;;;;;;39.77;25.93;;;-0.20;99.90;;;-2.82;100.00;98305.75;4981639;28;100886;-66
2021/01/30 03:44:13;;;;;;;36.83;25.33;;;-0.20;99.90;;;-2.81;100.00;98317.88;4982225;28;100725;-66
2021/01/30 03:46:40;;;;;;;36.60;24.40;;;-0.20;99.90;;;-2.83;100.00;98324.19;4981855;28;99988;-65
2021/01/30 03:49:06;;;;;;;37.20;25.10;;;-0.20;99.90;;;-2.90;100.00;98326.47;4982477;28;100184;-65
2021/01/30 03:51:33;;;;;;;37.60;25.10;;;-0.20;99.90;;;-2.90;100.00;98329.09;4981648;28;101034;-67
2021/01/30 03:54:00;;;;;;;34.60;23.97;;;-0.10;99.90;;;-2.90;100.00;98329.91;4982049;28;100490;-65
2021/01/30 03:56:27;;;;;;;37.37;24.13;;;-0.30;99.90;;;-2.90;100.00;98342.16;4981848;28;100354;-66
2021/01/30 03:58:53;;;;;;;31.70;22.37;;;-0.20;99.90;;;-2.92;100.00;98346.69;4981174;28;100391;-65
2021/01/30 04:01:20;;;;;;;32.17;21.60;;;-0.20;99.90;;;-2.92;100.00;98352.75;4980166;28;101632;-67
2021/01/30 04:03:47;;;;;;;34.57;22.60;;;-0.30;99.90;;;-2.91;100.00;98354.41;4981160;28;100742;-65
2021/01/30 04:06:16;;;;;;;34.00;20.37;;;-0.20;99.90;;;-2.99;100.00;98369.91;4981409;28;100152;-66
2021/01/30 04:09:06;;;;;;;28.13;19.17;;;-0.30;99.90;;;-3.05;100.00;98380.00;4980564;28;100154;-65
2021/01/30 04:11:34;;;;;;;30.07;19.67;;;-0.30;99.90;;;-3.00;100.00;98397.03;4980030;28;100838;-66
2021/01/30 04:14:01;;;;;;;31.43;20.77;;;-0.40;99.90;;;-3.00;100.00;98394.41;4981098;28;100843;-67
2021/01/30 04:16:28;;;;;;;28.73;19.37;;;-0.50;99.90;;;-3.11;100.00;98404.88;4980909;28;100243;-65
2021/01/30 04:18:54;;;;;;;29.53;18.97;;;-0.50;99.90;;;-3.08;100.00;98419.47;4981377;28;99983;-65
2021/01/30 04:21:22;;;;;;;23.70;15.87;;;-0.40;99.90;;;-3.21;100.00;98424.81;4980231;28;101307;-66
2021/01/30 04:23:50;;;;;;;26.10;17.67;;;-0.40;99.90;;;-3.17;100.00;98434.09;4983251;27;100837;-65
2021/01/30 04:26:19;;;;;;;23.57;16.43;;;-0.80;99.90;;;-3.19;100.00;98443.00;4983850;28;100086;-66
2021/01/30 04:28:48;;;;;;;24.37;15.17;;;-0.40;99.90;;;-3.21;100.00;98447.56;4984497;28;100236;-67
2021/01/30 04:31:15;;;;;;;25.10;14.87;;;-0.50;99.90;;;-3.24;100.00;98446.00;4984346;28;101102;-65
2021/01/30 04:33:41;;;;;;;21.37;14.37;;;-0.50;99.90;;;-3.31;100.00;98448.22;4984021;28;101512;-66
2021/01/30 04:36:08;;;;;;;21.23;14.73;;;-0.50;99.90;;;-3.34;100.00;98456.28;4984048;28;100200;-67
2021/01/30 04:38:34;;;;;;;20.43;13.13;;;-0.60;99.90;;;-3.36;100.00;98463.44;4984646;28;100042;-67
2021/01/30 04:41:13;;;;;;;18.20;12.07;;;-0.50;99.90;;;-3.40;100.00;98469.84;4983724;28;100928;-66
2021/01/30 04:43:51;;;;;;;19.13;12.57;;;-0.60;99.90;;;-3.42;100.00;98478.75;4984670;28;100283;-65
2021/01/30 04:46:35;;;;;;;20.83;12.20;;;-0.70;99.90;;;-3.43;100.00;98480.53;4984305;28;100055;-66
2021/01/30 04:49:10;;;;;;;20.30;12.70;;;-0.60;99.90;;;-3.45;100.00;98484.19;4984261;28;100378;-66
2021/01/30 04:51:50;;;;;;;17.23;12.30;;;-0.60;99.90;;;-3.46;100.00;98493.81;4983091;28;100724;-65
2021/01/30 04:54:33;;;;;;;19.70;11.47;;;-0.80;99.90;;;-3.45;100.00;98502.50;4984437;28;100766;-66
2021/01/30 04:57:14;;;;;;;19.77;12.83;;;-0.80;99.90;;;-3.47;100.00;98500.03;4984044;28;100144;-66
2021/01/30 04:59:59;;;;;;;18.73;12.30;;;-0.70;99.90;;;-3.47;100.00;98510.50;4983782;28;100413;-67
2021/01/30 05:02:39;;;;;;;19.47;12.67;;;-0.80;99.90;;;-3.45;100.00;98516.41;4983718;28;101010;-67
2021/01/30 05:05:10;;;;;;;15.77;11.20;;;-0.80;99.90;;;-3.43;100.00;98521.53;4983710;28;101190;-65
2021/01/30 05:07:43;;;;;;;20.30;12.80;;;-0.80;99.90;;;-3.45;100.00;98528.66;4983410;28;100071;-66
2021/01/30 05:10:16;;;;;;;18.93;11.93;;;-0.80;99.90;;;-3.47;100.00;98526.19;4984309;28;100423;-65
2021/01/30 05:12:49;;;;;;;17.37;12.33;;;-0.80;99.90;;;-3.46;100.00;98535.66;4981179;28;101729;-66
2021/01/30 05:15:24;;;;;;;15.87;11.33;;;-0.70;99.90;;;-3.45;100.00;98545.16;4983712;28;100887;-67
2021/01/30 05:17:59;;;;;;;18.13;11.37;;;-0.80;99.90;;;-3.44;100.00;98546.00;4983121;28;100277;-66
2021/01/30 05:20:36;;;;;;;13.77;10.03;;;-0.80;99.90;;;-3.47;100.00;98560.16;4997429;27;100112;-66
2021/01/30 05:23:06;;;;;;;15.07;10.13;;;-0.70;99.90;;;-3.49;100.00;98558.59;4983141;28;101222;-68
2021/01/30 05:25:34;;;;;;;14.23;9.63;;;-0.60;99.90;;;-3.47;100.00;98580.25;4980717;28;102947;-66
2021/01/30 05:28:25;;;;;;;14.53;10.27;;;-0.70;99.90;;;-3.43;100.00;98589.50;4980920;28;100300;-65
2021/01/30 05:31:08;;;;;;;14.70;10.00;;;-0.70;99.90;;;-3.43;100.00;98589.50;4981971;28;100565;-65
2021/01/30 05:34:07;;;;;;;16.43;10.10;;;-0.80;99.90;;;-3.46;100.00;98606.25;4983876;27;101106;-67
2021/01/30 05:36:41;;;;;;;14.33;9.97;;;-0.70;99.90;;;-3.43;100.00;98618.28;4983124;28;100215;-65
2021/01/30 05:39:27;;;;;;;15.47;10.13;;;-0.80;99.90;;;-3.41;100.00;98626.84;4984245;28;100054;-65
2021/01/30 05:42:08;;;;;;;12.50;9.10;;;-0.80;99.90;;;-3.43;100.00;98623.50;4983693;28;100220;-66
2021/01/30 05:44:45;;;;;;;13.57;8.67;;;-0.70;99.90;;;-3.43;100.00;98619.13;4986645;28;101522;-68
2021/01/30 05:47:18;;;;;;;13.90;8.67;;;-0.70;99.90;;;-3.47;100.00;98625.53;4984122;28;100476;-65
2021/01/30 05:49:57;;;;;;;12.37;8.10;;;-0.70;99.90;;;-3.49;100.00;98630.03;4983106;28;100179;-66
2021/01/30 05:52:29;;;;;;;11.87;8.30;;;-0.60;99.90;;;-3.48;100.00;98638.72;4982668;28;100128;-66
2021/01/30 05:54:57;;;;;;;12.10;8.60;;;-1.40;99.90;;;-3.47;100.00;98649.06;4982715;28;100931;-69
2021/01/30 05:57:24;;;;;;;11.93;9.37;;;-0.80;99.90;;;-3.45;100.00;98657.59;4982784;28;100800;-65
2021/01/30 05:59:55;;;;;;;13.27;8.87;;;-0.80;99.90;;;-3.41;100.00;98664.31;4983079;28;100087;-65
2021/01/30 06:02:25;;;;;;;12.90;8.97;;;-0.70;99.90;;;-3.42;100.00;98673.09;4983438;28;100323;-65
2021/01/30 06:04:52;;;;;;;12.23;8.70;;;-0.70;99.90;;;-3.45;100.00;98665.47;4982933;28;101471;-66
2021/01/30 06:07:32;;;;;;;14.67;9.60;;;-0.40;99.90;;;-3.42;100.00;98674.88;4982538;28;101105;-67
2021/01/30 06:10:18;;;;;;;13.90;9.63;;;-0.70;99.90;;;-3.43;100.00;98687.09;4982049;28;100130;-68
2021/01/30 06:12:44;;;;;;;13.97;9.90;;;-0.60;99.90;;;-3.43;100.00;98699.34;4983074;28;100116;-67
2021/01/30 06:15:15;;;;;;;15.23;10.50;;;-0.70;99.90;;;-3.45;100.00;98703.84;4983323;28;100833;-67
2021/01/30 06:17:43;;;;;;;16.87;10.90;;;-0.50;99.90;;;-3.46;100.00;98705.63;4983286;28;100610;-68
2021/01/30 06:20:19;;;;;;;17.67;11.60;;;-0.80;99.90;;;-3.45;100.00;98722.16;4982450;28;100204;-67
2021/01/30 06:23:06;;;;;;;14.67;11.10;;;-0.60;99.90;;;-3.43;100.00;98726.31;4981846;28;100392;-67
2021/01/30 06:25:36;;;;;;;15.10;10.30;;;-0.80;99.90;;;-3.39;100.00;98730.41;4982082;28;101594;-68
2021/01/30 06:28:08;;;;;;;15.67;10.53;;;-0.70;99.90;;;-3.45;100.00;98732.59;4982364;28;100973;-68
2021/01/30 06:30:38;;;;;;;17.97;11.10;;;-0.70;99.90;;;-3.41;100.00;98742.75;4982593;28;100032;-68
2021/01/30 06:33:25;;;;;;;16.27;11.50;;;-0.60;99.90;;;-3.44;100.00;98761.25;4982883;28;100448;-66
2021/01/30 06:35:56;;;;;;;18.27;11.10;;;-0.60;99.90;;;-3.38;100.00;98765.25;4981457;28;100942;-66
2021/01/30 06:38:31;;;;;;;16.83;12.03;;;-0.60;99.90;;;-3.37;100.00;98762.53;4982381;28;100516;-66
2021/01/30 06:41:02;;;;;;;16.47;11.40;;;-0.60;99.90;;;-3.45;100.00;98782.28;4981706;28;100502;-66
2021/01/30 06:43:33;;;;;;;14.83;10.80;;;-0.70;99.90;;;-3.55;100.00;98789.94;4962218;28;100221;-66
2021/01/30 06:46:07;;;;;;;16.80;11.67;;;-0.60;99.90;;;-3.52;100.00;98794.13;4977787;28;100477;-67
2021/01/30 06:48:39;;;;;;;16.80;11.93;;;-0.60;99.90;;;-3.53;100.00;98802.91;4979809;28;100970;-68
2021/01/30 06:51:32;;;;;;;17.00;10.87;;;-0.60;99.90;;;-3.57;100.00;98809.28;4980077;28;100387;-67
2021/01/30 06:54:23;;;;;;;16.70;11.90;;;-0.70;99.90;;;-3.44;100.00;98817.97;4980498;28;100048;-68
2021/01/30 06:57:02;;;;;;;18.20;11.83;;;-0.70;99.90;;;-3.56;100.00;98821.41;4979648;28;100083;-67
2021/01/30 06:59:32;;;;;;;16.50;11.90;;;-0.60;99.90;;;-3.49;100.00;98831.38;4978522;28;101507;-66
2021/01/30 07:01:59;;;;;;;16.87;12.13;;;-0.60;99.90;;;-3.45;100.00;98842.44;4978394;28;100067;-67
2021/01/30 07:05:05;;;;;;;16.30;12.00;;;-0.70;99.90;;;-3.45;100.00;98843.28;4979592;28;100092;-67
2021/01/30 07:07:40;;;;;;;16.57;12.00;;;-0.70;99.90;;;-3.46;100.00;98851.25;4979047;28;101439;-67
2021/01/30 07:10:23;;;;;;;16.67;12.27;;;-0.80;99.90;;;-3.49;100.00;98857.50;4980571;27;104145;-67
2021/01/30 07:13:08;;;;;;;17.80;12.33;;;-0.70;99.90;;;-3.50;100.00;98874.16;4964918;28;100196;-67
2021/01/30 07:15:40;;;;;;;16.27;12.83;;;-1.60;99.90;;;-3.45;100.00;98872.03;4978466;28;99902;-66
2021/01/30 07:18:28;;;;;;;22.03;12.43;;;-0.70;99.90;;;-3.46;100.00;98886.03;4979512;28;101500;-68
2021/01/30 07:21:16;;;;;;;16.63;11.63;;;-0.60;99.90;;;-3.38;100.00;98882.94;4980160;28;100836;-65
2021/01/30 07:23:51;;;;;;;19.03;13.33;;;-0.50;99.90;;;-3.41;100.00;98888.38;4976940;28;100699;-65
2021/01/30 07:26:24;;;;;;;20.80;14.67;;;-0.60;99.90;;;-3.46;100.00;98900.94;4994048;27;100275;-65
2021/01/30 07:28:59;;;;;;;21.03;13.07;;;-0.60;99.90;;;-3.50;100.00;98900.28;4978358;28;101304;-65
2021/01/30 07:31:32;;;;;;;22.53;14.43;;;-0.60;99.90;;;-3.42;100.00;98908.44;4978436;28;101010;-64
2021/01/30 07:34:06;;;;;;;26.63;16.17;;;-0.50;99.90;;;-3.33;100.00;98913.03;4979295;28;99993;-67
2021/01/30 07:36:39;;;;;;;23.53;15.00;;;-0.70;99.90;;;-3.35;100.00;98914.94;4978707;28;100133;-67
2021/01/30 07:39:26;;;;;;;24.30;15.87;;;-0.60;99.90;;;-3.30;100.00;98920.69;4979747;28;100850;-66
2021/01/30 07:41:57;;;;;;;19.83;13.80;;;-0.70;99.90;;;-3.28;100.00;98920.59;4986293;28;100575;-67
2021/01/30 07:44:32;;;;;;;33.87;16.90;;;-0.60;99.90;;;-3.29;100.00;98922.38;4986205;28;100239;-65
2021/01/30 07:47:11;;;;;;;20.37;14.50;;;-0.60;99.90;;;-3.35;100.00;98927.19;4978466;28;100369;-66
2021/01/30 07:49:42;;;;;;;22.57;16.00;;;-0.50;99.90;;;-3.26;100.00;98937.03;4979309;28;101688;-66
2021/01/30 07:52:14;;;;;;;21.17;14.30;;;-0.40;99.90;;;-3.34;100.00;98941.94;4978462;28;100333;-66
2021/01/30 07:54:48;;;;;;;24.90;14.93;;;-0.50;99.90;;;-3.30;100.00;98932.94;4978526;28;100003;-64
2021/01/30 07:57:59;;;;;;;26.33;16.97;;;-0.50;99.90;;;-3.05;100.00;98934.69;4979591;27;100386;-64
2021/01/30 08:00:39;;;;;;;28.33;17.50;;;-0.40;99.90;;;-3.06;100.00;98939.09;4977502;28;100735;-64
2021/01/30 08:03:50;;;;;;;23.90;15.33;;;-0.30;99.90;;;-3.02;100.00;98929.25;4982800;28;101078;-67
2021/01/30 08:06:34;;;;;;;24.93;16.67;;;-0.40;99.90;;;-2.96;100.00;98934.91;4981880;28;100361;-65
2021/01/30 08:09:17;;;;;;;31.40;17.07;;;-0.20;99.90;;;-3.08;100.00;98946.22;4971250;28;100554;-66
2021/01/30 08:12:00;;;;;;;20.97;14.50;;;-0.20;99.90;;;-3.15;100.00;98947.59;4971674;28;101538;-66
2021/01/30 08:14:48;;;;;;;22.83;16.17;;;-0.20;99.90;;;-3.04;100.00;98945.06;4982709;28;100572;-66
2021/01/30 08:17:34;;;;;;;19.60;13.80;;;-0.20;99.90;;;-3.14;100.00;98951.88;4980828;27;100388;-65
2021/01/30 08:20:05;;;;;;;19.40;14.20;;;-0.10;99.90;;;-3.08;100.00;98955.84;4982016;28;100379;-66
2021/01/30 08:22:38;;;;;;;21.93;14.27;;;0.00;99.90;;;-2.94;100.00;98951.34;4981355;28;101434;-65
2021/01/30 08:25:12;;;;;;;24.00;14.97;;;0.00;99.90;;;-2.87;100.00;98957.00;4981679;28;99992;-65
2021/01/30 08:27:43;;;;;;;16.87;12.70;;;0.00;99.90;;;-3.08;100.00;98964.53;4982323;28;100035;-66
2021/01/30 08:30:16;;;;;;;23.87;15.93;;;0.10;99.90;;;-2.88;100.00;98968.41;4983781;28;100103;-64
2021/01/30 08:32:58;;;;;;;24.33;16.40;;;0.10;99.90;;;-2.74;100.00;98970.91;4981280;28;100747;-65
2021/01/30 08:35:49;;;;;;;20.90;15.20;;;0.20;99.90;;;-2.80;100.00;98968.72;4981608;28;100442;-64
2021/01/30 08:38:40;;;;;;;20.87;13.67;;;0.20;99.90;;;-2.80;100.00;98967.88;4982514;28;101330;-64
2021/01/30 08:41:46;;;;;;;18.57;13.67;;;0.30;99.90;;;-2.86;100.00;98977.00;4983079;28;100138;-65
2021/01/30 08:44:40;;;;;;;20.07;14.40;;;0.40;99.90;;;-2.76;100.00;98974.56;4980896;28;101203;-65
2021/01/30 08:47:23;;;;;;;20.07;13.73;;;0.30;99.90;;;-2.83;100.00;98975.94;4977140;28;102590;-65
2021/01/30 08:50:38;;;;;;;20.43;13.70;;;0.20;99.90;;;-2.59;100.00;98982.06;4981063;28;101616;-64
2021/01/30 08:53:13;;;;;;;17.70;13.53;;;0.30;99.90;;;-2.61;100.00;98984.81;4976783;28;100215;-64
2021/01/30 08:55:55;;;;;;;21.87;13.53;;;1.00;99.90;;;-2.67;100.00;98987.84;4980733;28;101275;-64
2021/01/30 08:58:51;;;;;;;19.97;13.30;;;1.00;99.90;;;-2.80;100.00;99000.13;4981514;28;101389;-64
2021/01/30 09:01:47;;;;;;;17.33;13.27;;;0.50;99.90;;;-2.67;100.00;98990.47;4982080;28;100224;-64
2021/01/30 09:04:55;;;;;;;17.53;12.67;;;0.30;99.90;;;-2.49;100.00;98998.00;4982670;28;100406;-67
2021/01/30 09:07:44;;;;;;;18.93;14.20;;;0.40;99.90;;;-2.48;100.00;99011.00;4981637;28;100913;-64
2021/01/30 09:10:33;;;;;;;17.63;13.03;;;0.50;99.90;;;-2.44;100.00;99004.56;4982204;27;100274;-66
2021/01/30 09:13:04;;;;;;;20.10;13.43;;;0.00;99.90;;;-2.35;100.00;99010.97;4989996;28;100082;-65
2021/01/30 09:16:03;;;;;;;19.27;14.67;;;0.60;99.90;;;-2.38;100.00;99014.63;4988544;28;100408;-66
2021/01/30 09:18:48;;;;;;;17.17;12.90;;;0.50;99.90;;;-2.54;100.00;99014.88;4966234;28;101243;-66
2021/01/30 09:21:25;;;;;;;16.00;12.40;;;0.70;99.90;;;-2.43;100.00;99019.34;4978624;28;102407;-67
2021/01/30 09:24:48;;;;;;;19.03;14.27;;;0.70;99.90;;;-2.32;100.00;99015.97;4980503;28;99964;-67
2021/01/30 09:27:22;;;;;;;21.80;14.83;;;0.70;99.90;;;-2.40;100.00;99018.31;4981085;28;99959;-67
2021/01/30 09:29:51;;;;;;;16.60;13.17;;;0.60;99.90;;;-2.45;100.00;99020.41;4980308;28;101602;-68
2021/01/30 09:32:27;;;;;;;17.23;12.43;;;0.80;99.90;;;-2.48;100.00;99031.09;4980958;28;100353;-67
2021/01/30 09:34:57;;;;;;;18.23;13.03;;;0.60;99.90;;;-2.36;100.00;99022.38;4979849;28;100667;-67
2021/01/30 09:37:40;;;;;;;21.20;14.33;;;0.80;99.90;;;-2.44;100.00;99025.53;4980993;28;100277;-68
2021/01/30 09:40:16;;;;;;;22.70;14.37;;;0.70;99.90;;;-2.34;100.00;99031.78;4980093;28;100742;-68
2021/01/30 09:42:42;;;;;;;18.13;12.97;;;-0.30;99.90;;;-2.23;100.00;99024.03;4976082;28;102191;-69
2021/01/30 09:45:15;;;;;;;18.73;14.03;;;0.80;99.90;;;-2.20;100.00;99030.81;4979677;28;100081;-69
2021/01/30 09:47:48;;;;;;;21.40;13.47;;;0.70;99.90;;;-2.22;100.00;99032.72;4980191;28;100122;-70
2021/01/30 09:50:22;;;;;;;19.93;14.07;;;0.90;99.90;;;-2.13;100.00;99036.50;4979941;28;100997;-70
2021/01/30 09:52:54;;;;;;;23.43;15.13;;;1.00;99.90;;;-2.15;100.00;99031.34;4980066;28;100408;-70
2021/01/30 09:55:23;;;;;;;22.40;14.70;;;1.00;99.90;;;-2.02;100.00;99037.41;4960696;28;100259;-68
2021/01/30 09:57:51;;;;;;;20.73;14.17;;;1.00;99.90;;;-2.03;100.00;99038.34;4960154;28;100302;-68
2021/01/30 10:00:29;;;;;;;18.57;14.07;;;1.00;99.90;;;-1.99;100.00;99037.19;4969948;28;100482;-69
2021/01/30 10:03:05;;;;;;;18.77;13.27;;;1.10;99.90;;;-1.94;100.00;99045.53;4980623;28;100332;-68
2021/01/30 10:05:32;;;;;;;18.93;13.90;;;1.20;99.90;;;-1.96;100.00;99036.94;4980135;28;100341;-67
2021/01/30 10:08:14;;;;;;;19.07;13.53;;;1.00;99.90;;;-2.06;100.00;99042.94;4979810;28;100109;-67
2021/01/30 10:10:40;;;;;;;17.60;13.37;;;1.20;99.90;;;-1.99;100.00;99049.44;4978917;28;100877;-68
2021/01/30 10:13:14;;;;;;;18.63;14.10;;;1.20;99.90;;;-1.97;100.00;99055.41;4979383;28;101410;-67
2021/01/30 10:15:45;;;;;;;16.60;12.33;;;1.10;99.90;;;-1.98;100.00;99059.00;4979668;28;100093;-68
2021/01/30 10:18:19;;;;;;;17.60;12.53;;;1.30;99.90;;;-1.91;100.00;99058.44;4980698;28;100104;-66
2021/01/30 10:20:49;;;;;;;13.63;10.60;;;1.20;99.90;;;-1.89;100.00;99050.47;4979721;28;101272;-65
2021/01/30 10:23:29;;;;;;;14.77;10.60;;;1.20;99.90;;;-1.85;100.00;99054.50;4959856;28;101180;-65
2021/01/30 10:26:09;;;;;;;19.63;12.20;;;1.20;99.90;;;-1.79;100.00;99063.75;4984902;27;100306;-64
2021/01/30 10:28:51;;;;;;;15.53;11.43;;;1.20;99.90;;;-1.66;100.00;99067.16;4981329;28;100280;-64
2021/01/30 10:31:23;;;;;;;16.53;11.53;;;1.40;99.90;;;-1.74;100.00;99070.34;4979424;28;101222;-65